CSCL Summer — VRMZ7 — position and weather

sailwx.info

Track history (hours):
 
Tides and Currents Weather Stations Pressure Air Temp Water Temp Dewpoint Dewpoint Depression Visibility Wind Speed Wind Dir Waves Ship Positions

CSCL Summer

Last reported at 2017-Dec-11 03:49 UTC. Time now 2017-Dec-12 04:12 UTC.
Position N 30°35' E 122°08'.

Length 335 m; draft 10.8 m.

Type: Ship (hazmat cat A). MMSI: 477293900.

Date/timePositionNaut miles runAvg speedWind from/ knotsBaromVisibWave heightAir tempDewpointWater temp
2017-Dec-11 03:49N 30°35' E 122°08'3 7.3
2017-Dec-11 03:23N 30°37' E 122°05'0 0.1
2017-Dec-11 02:59N 30°37' E 122°05'0 0.0
2017-Dec-10 11:12N 30°37' E 122°05'0 1.8
2017-Dec-10 11:00N 30°36' E 122°05'4 1.0
2017-Dec-10 07:00N 30°39' E 122°01'0 0.0
2017-Dec-10 06:27N 30°39' E 122°01'0 0.0
2017-Dec-10 06:00N 30°39' E 122°01'0 0.0
2017-Dec-10 05:30N 30°39' E 122°01'0 0.0
2017-Dec-10 05:00N 30°39' E 122°01'0 0.0
2017-Dec-10 04:30N 30°39' E 122°01'0 0.0
2017-Dec-10 04:00N 30°39' E 122°01'0 0.1
2017-Dec-10 03:27N 30°39' E 122°01'0 0.0
2017-Dec-10 03:00N 30°39' E 122°01'0 0.1
2017-Dec-10 02:30N 30°39' E 122°01'0 0.1
2017-Dec-10 02:00N 30°39' E 122°01'0 0.1
2017-Dec-10 01:30N 30°39' E 122°01'0 0.0
2017-Dec-10 01:00N 30°39' E 122°01'0 0.0
2017-Dec-10 00:30N 30°39' E 122°01'0 0.0
2017-Dec-09 23:51N 30°39' E 122°01'0 0.0
2017-Dec-09 23:21N 30°39' E 122°01'0 0.0
2017-Dec-09 23:00N 30°39' E 122°01'0 0.1
2017-Dec-09 22:27N 30°39' E 122°01'0 0.1
2017-Dec-09 21:57N 30°39' E 122°01'0 0.0
2017-Dec-09 21:30N 30°39' E 122°01'0 0.0
2017-Dec-09 21:00N 30°39' E 122°01'0 0.0
2017-Dec-09 20:30N 30°39' E 122°01'0 0.0
2017-Dec-09 20:00N 30°39' E 122°01'0 0.0
2017-Dec-09 19:27N 30°39' E 122°01'0 0.0
2017-Dec-09 18:57N 30°39' E 122°01'0 0.0
2017-Dec-09 18:27N 30°39' E 122°01'0 0.0
2017-Dec-09 17:54N 30°39' E 122°01'0 0.0
2017-Dec-09 17:21N 30°39' E 122°01'0 0.0
2017-Dec-09 16:57N 30°39' E 122°01'0 0.0
2017-Dec-09 14:36N 30°39' E 122°01'0 0.5
2017-Dec-09 14:30N 30°39' E 122°01'0 0.1
2017-Dec-09 14:00N 30°39' E 122°01'0 0.1
2017-Dec-09 13:27N 30°39' E 122°01'0 0.0
2017-Dec-09 12:57N 30°39' E 122°01'0 0.0
2017-Dec-09 12:30N 30°39' E 122°01'0 0.0
2017-Dec-09 11:57N 30°39' E 122°01'0 0.1
2017-Dec-09 11:30N 30°39' E 122°01'0 0.0
2017-Dec-09 09:57N 30°39' E 122°01'0 0.0
2017-Dec-09 09:30N 30°39' E 122°01'0 0.0
2017-Dec-09 08:51N 30°39' E 122°01'0 0.0
2017-Dec-09 08:30N 30°39' E 122°01'0 0.0
2017-Dec-09 08:00N 30°39' E 122°01'0 0.0
2017-Dec-09 07:30N 30°39' E 122°01'0 0.0
2017-Dec-09 07:00N 30°39' E 122°01'0 0.0
2017-Dec-09 06:30N 30°39' E 122°01'0 0.0
2017-Dec-09 06:00N 30°39' E 122°01'0 0.1
2017-Dec-09 05:30N 30°39' E 122°01'0 0.1
2017-Dec-09 04:51N 30°39' E 122°01'0 0.0
2017-Dec-09 04:27N 30°39' E 122°01'0 0.0
2017-Dec-09 04:00N 30°39' E 122°01'0 0.0
2017-Dec-09 03:30N 30°39' E 122°01'0 0.0
2017-Dec-09 03:00N 30°39' E 122°01'0 0.0
2017-Dec-09 02:30N 30°39' E 122°01'0 0.0
2017-Dec-09 01:57N 30°39' E 122°01'0 0.1
2017-Dec-09 01:15N 30°39' E 122°01'0 0.0
2017-Dec-09 01:00N 30°39' E 122°01'0 0.0
2017-Dec-08 22:58N 30°39' E 122°01'2 3.2
2017-Dec-08 22:29N 30°38' E 122°02'  
Track history (hours):
 
Tides and Currents Weather Stations Pressure Air Temp Water Temp Dewpoint Dewpoint Depression Visibility Wind Speed Wind Dir Waves Ship Positions

CSCL Summer

Last reported at 2017-Dec-11 03:49 UTC. Time now 2017-Dec-12 04:12 UTC.
Position N 30°35' E 122°08'.

Length 335 m; draft 10.8 m.

Type: Ship (hazmat cat A). MMSI: 477293900.

Date/timePositionNaut miles runAvg speedWind from/ knotsBaromVisibWave heightAir tempDewpointWater temp
2017-Dec-11 03:49N 30°35' E 122°08'3 7.3
2017-Dec-11 03:23N 30°37' E 122°05'0 0.1
2017-Dec-11 02:59N 30°37' E 122°05'0 0.0
2017-Dec-10 11:12N 30°37' E 122°05'0 1.8
2017-Dec-10 11:00N 30°36' E 122°05'4 1.0
2017-Dec-10 07:00N 30°39' E 122°01'0 0.0
2017-Dec-10 06:27N 30°39' E 122°01'0 0.0
2017-Dec-10 06:00N 30°39' E 122°01'0 0.0
2017-Dec-10 05:30N 30°39' E 122°01'0 0.0
2017-Dec-10 05:00N 30°39' E 122°01'0 0.0
2017-Dec-10 04:30N 30°39' E 122°01'0 0.0
2017-Dec-10 04:00N 30°39' E 122°01'0 0.1
2017-Dec-10 03:27N 30°39' E 122°01'0 0.0
2017-Dec-10 03:00N 30°39' E 122°01'0 0.1
2017-Dec-10 02:30N 30°39' E 122°01'0 0.1
2017-Dec-10 02:00N 30°39' E 122°01'0 0.1
2017-Dec-10 01:30N 30°39' E 122°01'0 0.0
2017-Dec-10 01:00N 30°39' E 122°01'0 0.0
2017-Dec-10 00:30N 30°39' E 122°01'0 0.0
2017-Dec-09 23:51N 30°39' E 122°01'0 0.0
2017-Dec-09 23:21N 30°39' E 122°01'0 0.0
2017-Dec-09 23:00N 30°39' E 122°01'0 0.1
2017-Dec-09 22:27N 30°39' E 122°01'0 0.1
2017-Dec-09 21:57N 30°39' E 122°01'0 0.0
2017-Dec-09 21:30N 30°39' E 122°01'0 0.0
2017-Dec-09 21:00N 30°39' E 122°01'0 0.0
2017-Dec-09 20:30N 30°39' E 122°01'0 0.0
2017-Dec-09 20:00N 30°39' E 122°01'0 0.0
2017-Dec-09 19:27N 30°39' E 122°01'0 0.0
2017-Dec-09 18:57N 30°39' E 122°01'0 0.0
2017-Dec-09 18:27N 30°39' E 122°01'0 0.0
2017-Dec-09 17:54N 30°39' E 122°01'0 0.0
2017-Dec-09 17:21N 30°39' E 122°01'0 0.0
2017-Dec-09 16:57N 30°39' E 122°01'0 0.0
2017-Dec-09 14:36N 30°39' E 122°01'0 0.5
2017-Dec-09 14:30N 30°39' E 122°01'0 0.1
2017-Dec-09 14:00N 30°39' E 122°01'0 0.1
2017-Dec-09 13:27N 30°39' E 122°01'0 0.0
2017-Dec-09 12:57N 30°39' E 122°01'0 0.0
2017-Dec-09 12:30N 30°39' E 122°01'0 0.0
2017-Dec-09 11:57N 30°39' E 122°01'0 0.1
2017-Dec-09 11:30N 30°39' E 122°01'0 0.0
2017-Dec-09 09:57N 30°39' E 122°01'0 0.0
2017-Dec-09 09:30N 30°39' E 122°01'0 0.0
2017-Dec-09 08:51N 30°39' E 122°01'0 0.0
2017-Dec-09 08:30N 30°39' E 122°01'0 0.0
2017-Dec-09 08:00N 30°39' E 122°01'0 0.0
2017-Dec-09 07:30N 30°39' E 122°01'0 0.0
2017-Dec-09 07:00N 30°39' E 122°01'0 0.0
2017-Dec-09 06:30N 30°39' E 122°01'0 0.0
2017-Dec-09 06:00N 30°39' E 122°01'0 0.1
2017-Dec-09 05:30N 30°39' E 122°01'0 0.1
2017-Dec-09 04:51N 30°39' E 122°01'0 0.0
2017-Dec-09 04:27N 30°39' E 122°01'0 0.0
2017-Dec-09 04:00N 30°39' E 122°01'0 0.0
2017-Dec-09 03:30N 30°39' E 122°01'0 0.0
2017-Dec-09 03:00N 30°39' E 122°01'0 0.0
2017-Dec-09 02:30N 30°39' E 122°01'0 0.0
2017-Dec-09 01:57N 30°39' E 122°01'0 0.1
2017-Dec-09 01:15N 30°39' E 122°01'0 0.0
2017-Dec-09 01:00N 30°39' E 122°01'0 0.0
2017-Dec-08 22:58N 30°39' E 122°01'2 3.2
2017-Dec-08 22:29N 30°38' E 122°02'  

Dump ship's entire track history